createdAt,value
2019-01-26T00:01:47.700Z,39.20
2019-01-26T00:04:17.194Z,29.30
2019-01-26T00:06:46.633Z,36.47
2019-01-26T00:09:17.400Z,32.40
2019-01-26T00:11:46.948Z,27.13
2019-01-26T00:14:16.432Z,31.60
2019-01-26T00:16:46.270Z,30.03
2019-01-26T00:19:15.663Z,27.83
2019-01-26T00:21:45.116Z,27.30
2019-01-26T00:24:14.769Z,39.47
2019-01-26T00:26:44.230Z,24.70
2019-01-26T00:29:13.743Z,31.83
2019-01-26T00:31:43.229Z,28.43
2019-01-26T00:34:12.637Z,31.53
2019-01-26T00:36:42.100Z,29.47
2019-01-26T00:39:11.630Z,25.83
2019-01-26T00:41:41.067Z,32.30
2019-01-26T00:44:10.484Z,32.93
2019-01-26T00:46:39.991Z,26.17
2019-01-26T00:49:09.485Z,30.73
2019-01-26T00:51:38.926Z,29.70
2019-01-26T00:54:08.509Z,28.53
2019-01-26T00:56:37.991Z,26.57
2019-01-26T00:59:07.518Z,28.50
2019-01-26T01:01:36.994Z,30.73
2019-01-26T01:04:06.536Z,29.03
2019-01-26T01:06:35.989Z,29.27
2019-01-26T01:09:08.801Z,32.93
2019-01-26T01:11:38.352Z,27.80
2019-01-26T01:14:07.941Z,27.43
2019-01-26T01:16:37.446Z,28.53
2019-01-26T01:19:07.198Z,27.23
2019-01-26T01:21:36.670Z,31.50
2019-01-26T01:24:06.576Z,30.97
2019-01-26T01:26:36.139Z,35.60
2019-01-26T01:29:05.948Z,39.57
2019-01-26T01:31:35.459Z,37.40
2019-01-26T01:34:04.937Z,36.63
2019-01-26T01:36:34.378Z,42.80
2019-01-26T01:39:04.751Z,49.10
2019-01-26T01:41:34.228Z,48.03
2019-01-26T01:44:03.693Z,39.60
2019-01-26T01:46:33.208Z,44.00
2019-01-26T01:49:02.726Z,49.07
2019-01-26T01:51:32.229Z,42.63
2019-01-26T01:54:01.637Z,46.10
2019-01-26T01:56:31.095Z,45.43
2019-01-26T01:59:00.680Z,34.37
2019-01-26T02:01:30.238Z,48.23
2019-01-26T02:03:59.668Z,41.10
2019-01-26T02:06:29.212Z,40.03
2019-01-26T02:08:58.746Z,43.27
2019-01-26T02:11:28.203Z,45.63
2019-01-26T02:13:57.665Z,34.40
2019-01-26T02:16:27.139Z,41.97
2019-01-26T02:18:56.677Z,48.00
2019-01-26T02:21:26.174Z,40.17
2019-01-26T02:23:55.666Z,39.97
2019-01-26T02:26:25.108Z,44.10
2019-01-26T02:28:54.587Z,40.80
2019-01-26T02:31:24.065Z,40.80
2019-01-26T02:33:53.573Z,47.07
2019-01-26T02:36:23.058Z,40.60
2019-01-26T02:38:52.469Z,40.80
2019-01-26T02:41:21.941Z,42.97
2019-01-26T02:43:51.669Z,42.53
2019-01-26T02:46:21.109Z,48.30
2019-01-26T02:48:50.741Z,37.00
2019-01-26T02:51:20.248Z,37.77
2019-01-26T02:53:49.797Z,32.30
2019-01-26T02:56:19.278Z,37.27
2019-01-26T02:58:48.736Z,39.93
2019-01-26T03:01:18.203Z,28.53
2019-01-26T03:03:47.752Z,31.63
2019-01-26T03:06:17.264Z,35.80
2019-01-26T03:08:46.791Z,35.93
2019-01-26T03:11:17.166Z,40.00
2019-01-26T03:13:47.899Z,40.00
2019-01-26T03:16:17.409Z,41.23
2019-01-26T03:18:48.039Z,46.53
2019-01-26T03:21:17.504Z,35.30
2019-01-26T03:23:47.006Z,35.67
2019-01-26T03:26:16.506Z,39.03
2019-01-26T03:28:46.051Z,42.90
2019-01-26T03:31:15.469Z,32.30
2019-01-26T03:33:44.867Z,33.17
2019-01-26T03:36:14.437Z,35.83
2019-01-26T03:38:43.944Z,32.33
2019-01-26T03:41:13.341Z,34.10
2019-01-26T03:43:42.910Z,31.83
2019-01-26T03:46:12.329Z,25.37
2019-01-26T03:48:41.870Z,31.50
2019-01-26T03:51:11.444Z,32.17
2019-01-26T03:53:40.941Z,33.23
2019-01-26T03:56:10.364Z,30.53
2019-01-26T03:58:39.839Z,31.27
2019-01-26T04:01:09.333Z,36.03
2019-01-26T04:03:38.844Z,32.27
2019-01-26T04:06:08.315Z,29.33
2019-01-26T04:08:37.719Z,27.27
2019-01-26T04:11:07.231Z,35.10
2019-01-26T04:13:36.767Z,32.33
2019-01-26T04:16:06.183Z,28.77
2019-01-26T04:18:35.605Z,29.07
2019-01-26T04:21:05.430Z,31.97
2019-01-26T04:23:35.033Z,25.03
2019-01-26T04:26:04.429Z,32.37
2019-01-26T04:28:33.915Z,26.63
2019-01-26T04:31:03.471Z,27.17
2019-01-26T04:33:32.987Z,29.23
2019-01-26T04:36:02.474Z,28.87
2019-01-26T04:38:31.867Z,27.03
2019-01-26T04:41:01.391Z,33.17
2019-01-26T04:43:30.925Z,38.60
2019-01-26T04:46:00.344Z,40.47
2019-01-26T04:48:29.769Z,38.53
2019-01-26T04:50:59.345Z,36.23
2019-01-26T04:53:28.881Z,35.07
2019-01-26T04:55:58.321Z,39.67
2019-01-26T04:58:27.753Z,37.57
2019-01-26T05:00:57.261Z,35.00
2019-01-26T05:03:26.758Z,34.00
2019-01-26T05:05:56.304Z,39.00
2019-01-26T05:08:25.818Z,36.10
2019-01-26T05:10:55.240Z,38.60
2019-01-26T05:13:24.680Z,40.60
2019-01-26T05:15:54.222Z,37.87
2019-01-26T05:18:23.748Z,35.60
2019-01-26T05:20:53.352Z,32.43
2019-01-26T05:23:22.786Z,33.43
2019-01-26T05:25:52.259Z,41.10
2019-01-26T05:28:21.800Z,35.57
2019-01-26T05:30:51.210Z,37.63
2019-01-26T05:33:20.680Z,38.27
2019-01-26T05:35:51.130Z,38.43
2019-01-26T05:38:20.647Z,36.23
2019-01-26T05:40:50.067Z,38.87
2019-01-26T05:43:19.613Z,46.50
2019-01-26T05:45:49.008Z,40.77
2019-01-26T05:48:18.419Z,49.30
2019-01-26T05:50:47.982Z,43.50
2019-01-26T05:53:17.500Z,44.30
2019-01-26T05:55:46.926Z,45.70
2019-01-26T05:58:16.351Z,49.43
2019-01-26T06:00:45.867Z,48.77
2019-01-26T06:03:15.378Z,51.30
2019-01-26T06:05:44.843Z,43.90
2019-01-26T06:08:14.270Z,46.60
2019-01-26T06:10:43.797Z,48.93
2019-01-26T06:13:13.334Z,52.47
2019-01-26T06:15:42.841Z,52.67
2019-01-26T06:18:12.242Z,58.00
2019-01-26T06:20:41.765Z,56.83
2019-01-26T06:23:11.160Z,53.47
2019-01-26T06:25:40.669Z,49.73
2019-01-26T06:28:10.192Z,58.53
2019-01-26T06:30:39.606Z,56.13
2019-01-26T06:33:08.989Z,64.80
2019-01-26T06:35:38.575Z,55.07
2019-01-26T06:38:08.224Z,57.10
2019-01-26T06:40:37.797Z,57.37
2019-01-26T06:43:07.247Z,55.83
2019-01-26T06:45:36.761Z,56.30
2019-01-26T06:48:06.300Z,55.30
2019-01-26T06:50:35.738Z,54.97
2019-01-26T06:53:05.241Z,51.53
2019-01-26T06:55:34.736Z,54.30
2019-01-26T06:58:04.272Z,59.30
2019-01-26T07:00:33.784Z,68.83
2019-01-26T07:03:03.271Z,67.83
2019-01-26T07:05:59.574Z,56.53
2019-01-26T07:08:26.793Z,51.40
2019-01-26T07:10:56.372Z,54.53
2019-01-26T07:13:25.969Z,56.97
2019-01-26T07:15:57.737Z,53.57
2019-01-26T07:18:27.173Z,62.47
2019-01-26T07:20:56.659Z,62.30
2019-01-26T07:23:26.176Z,59.40
2019-01-26T07:25:55.619Z,55.57
2019-01-26T07:28:25.050Z,59.00
2019-01-26T07:30:54.563Z,55.10
2019-01-26T07:33:24.241Z,64.17
2019-01-26T07:35:53.660Z,56.57
2019-01-26T07:38:23.078Z,64.63
2019-01-26T07:40:52.628Z,67.63
2019-01-26T07:43:23.404Z,69.67
2019-01-26T07:45:52.944Z,65.40
2019-01-26T07:48:22.498Z,57.33
2019-01-26T07:50:53.373Z,69.70
2019-01-26T07:53:22.765Z,58.20
2019-01-26T07:55:52.627Z,58.63
2019-01-26T07:58:22.118Z,58.83
2019-01-26T08:00:51.542Z,69.87
2019-01-26T08:03:21.159Z,67.37
2019-01-26T08:05:50.770Z,62.57
2019-01-26T08:08:20.272Z,71.07
2019-01-26T08:10:49.879Z,73.27
2019-01-26T08:13:19.287Z,66.27
2019-01-26T08:15:48.879Z,71.20
2019-01-26T08:18:24.031Z,75.50
2019-01-26T08:20:49.703Z,62.27
2019-01-26T08:23:19.212Z,65.20
2019-01-26T08:25:48.662Z,71.10
2019-01-26T08:28:18.082Z,75.20
2019-01-26T08:30:47.580Z,61.13
2019-01-26T08:33:17.132Z,62.03
2019-01-26T08:35:46.533Z,54.83
2019-01-26T08:38:15.917Z,54.83
2019-01-26T08:40:45.630Z,68.63
2019-01-26T08:43:15.138Z,63.80
2019-01-26T08:45:44.543Z,60.67
2019-01-26T08:48:13.999Z,63.47
2019-01-26T08:50:44.106Z,67.20
2019-01-26T08:53:13.724Z,65.93
2019-01-26T08:55:43.227Z,66.23
2019-01-26T08:58:12.674Z,70.90
2019-01-26T09:00:42.187Z,60.33
2019-01-26T09:03:36.612Z,70.53
2019-01-26T09:06:09.189Z,71.70
2019-01-26T09:08:38.680Z,72.53
2019-01-26T09:11:08.142Z,72.90
2019-01-26T09:13:37.564Z,65.67
2019-01-26T09:16:07.471Z,68.03
2019-01-26T09:18:38.827Z,58.37
2019-01-26T09:21:15.774Z,49.93
2019-01-26T09:23:47.174Z,50.10
2019-01-26T09:26:16.694Z,55.20
2019-01-26T09:28:46.210Z,58.43
2019-01-26T09:31:15.651Z,60.37
2019-01-26T09:33:45.081Z,56.77
2019-01-26T09:36:14.605Z,24.60
2019-01-26T09:38:44.176Z,19.33
2019-01-26T09:41:13.580Z,18.57
2019-01-26T09:43:42.994Z,21.30
2019-01-26T09:46:12.686Z,17.27
2019-01-26T09:48:46.293Z,20.53
2019-01-26T09:51:17.875Z,19.53
2019-01-26T09:57:08.482Z,17.20
2019-01-26T09:59:38.150Z,19.70
2019-01-26T10:02:07.583Z,20.43
2019-01-26T10:04:37.059Z,20.10
2019-01-26T10:07:07.011Z,22.97
2019-01-26T10:09:36.507Z,22.87
2019-01-26T10:12:06.174Z,26.23
2019-01-26T10:14:35.617Z,23.57
2019-01-26T10:17:05.235Z,26.27
2019-01-26T10:19:34.946Z,22.43
2019-01-26T10:22:14.668Z,22.87
2019-01-26T10:24:56.613Z,22.60
2019-01-26T10:27:25.967Z,25.30
2019-01-26T10:29:55.372Z,22.07
2019-01-26T10:32:25.151Z,22.50
2019-01-26T10:34:54.646Z,25.13
2019-01-26T10:37:26.871Z,23.30
2019-01-26T10:39:56.438Z,24.33
2019-01-26T10:42:28.041Z,18.97
2019-01-26T10:44:57.803Z,22.83
2019-01-26T10:47:27.483Z,26.10
2019-01-26T10:49:56.982Z,21.00
2019-01-26T10:52:26.619Z,22.47
2019-01-26T10:54:56.607Z,18.30
2019-01-26T10:57:26.250Z,20.43
2019-01-26T10:59:55.699Z,24.20
2019-01-26T11:02:25.303Z,22.13
2019-01-26T11:04:54.874Z,21.07
2019-01-26T11:07:24.389Z,17.37
2019-01-26T11:09:54.138Z,23.57
2019-01-26T11:12:23.549Z,23.70
2019-01-26T11:14:53.008Z,26.17
2019-01-26T11:17:22.840Z,20.53
2019-01-26T11:19:52.342Z,22.83
2019-01-26T11:22:21.802Z,24.03
2019-01-26T11:24:51.445Z,24.10
2019-01-26T11:27:20.940Z,21.30
2019-01-26T11:29:50.468Z,31.20
2019-01-26T11:32:19.908Z,24.03
2019-01-26T11:34:49.345Z,32.37
2019-01-26T11:37:18.824Z,31.13
2019-01-26T11:39:54.805Z,19.23
2019-01-26T11:42:24.265Z,32.73
2019-01-26T11:45:19.757Z,39.90
2019-01-26T11:47:49.158Z,26.80
2019-01-26T11:50:24.278Z,28.07
2019-01-26T11:52:53.815Z,20.03
2019-01-26T11:55:31.254Z,21.47
2019-01-26T11:58:00.684Z,27.23
2019-01-26T12:00:59.371Z,24.80
2019-01-26T12:03:34.437Z,18.77
2019-01-26T12:06:10.912Z,23.40
2019-01-26T12:08:40.300Z,18.97
2019-01-26T12:11:09.720Z,22.60
2019-01-26T12:13:39.268Z,20.80
2019-01-26T12:16:08.794Z,19.80
2019-01-26T12:18:38.220Z,21.23
2019-01-26T12:21:07.648Z,21.20
2019-01-26T12:23:37.181Z,21.23
2019-01-26T12:26:06.801Z,19.33
2019-01-26T12:28:36.250Z,17.23
2019-01-26T12:31:05.902Z,19.23
2019-01-26T12:33:35.414Z,21.27
2019-01-26T12:36:05.467Z,18.40
2019-01-26T12:38:34.878Z,19.73
2019-01-26T12:41:04.384Z,15.60
2019-01-26T12:43:33.979Z,17.50
2019-01-26T12:46:03.491Z,20.40
2019-01-26T12:48:32.926Z,23.40
2019-01-26T12:51:02.348Z,27.67
2019-01-26T12:53:31.954Z,26.17
2019-01-26T12:56:01.455Z,22.93
2019-01-26T12:58:30.919Z,19.80
2019-01-26T13:01:00.333Z,18.93
2019-01-26T13:03:29.861Z,20.37
2019-01-26T13:05:59.299Z,22.17
2019-01-26T13:08:28.937Z,25.53
2019-01-26T13:11:00.932Z,28.33
2019-01-26T13:13:30.401Z,23.67
2019-01-26T13:15:59.814Z,25.67
2019-01-26T13:18:29.420Z,26.07
2019-01-26T13:20:59.111Z,27.10
2019-01-26T13:23:28.571Z,30.33
2019-01-26T13:25:57.990Z,28.90
2019-01-26T13:28:27.527Z,27.67
2019-01-26T13:30:57.038Z,25.53
2019-01-26T13:33:26.490Z,29.47
2019-01-26T13:35:55.923Z,26.93
2019-01-26T13:38:25.453Z,30.33
2019-01-26T13:40:55.068Z,27.63
2019-01-26T13:43:24.524Z,30.97
2019-01-26T13:45:54.046Z,31.27
2019-01-26T13:48:23.447Z,32.47
2019-01-26T13:50:52.888Z,35.97
2019-01-26T13:53:22.390Z,34.73
2019-01-26T13:55:51.884Z,35.53
2019-01-26T13:58:21.377Z,33.83
2019-01-26T14:00:50.778Z,33.20
2019-01-26T14:03:20.293Z,30.37
2019-01-26T14:05:50.371Z,31.40
2019-01-26T14:08:19.775Z,30.53
2019-01-26T14:10:49.199Z,28.23
2019-01-26T14:13:18.753Z,29.30
2019-01-26T14:15:48.282Z,29.17
2019-01-26T14:18:17.701Z,31.80
2019-01-26T14:20:47.155Z,31.53
2019-01-26T14:23:16.796Z,33.60
2019-01-26T14:25:46.211Z,34.40
2019-01-26T14:28:15.809Z,41.63
2019-01-26T14:30:48.961Z,34.53
2019-01-26T14:33:18.363Z,32.50
2019-01-26T14:35:47.833Z,30.60
2019-01-26T14:38:17.342Z,33.33
2019-01-26T14:40:46.849Z,36.50
2019-01-26T14:43:16.345Z,37.30
2019-01-26T14:45:45.754Z,41.47
2019-01-26T14:48:15.239Z,42.30
2019-01-26T14:50:45.063Z,39.40
2019-01-26T14:53:14.469Z,46.03
2019-01-26T14:55:43.917Z,50.63
2019-01-26T14:58:13.617Z,36.07
2019-01-26T15:00:43.267Z,33.93
2019-01-26T15:03:12.654Z,36.57
2019-01-26T15:05:42.117Z,34.83
2019-01-26T15:08:11.688Z,33.50
2019-01-26T15:10:41.201Z,33.80
2019-01-26T15:13:10.651Z,33.87
2019-01-26T15:15:40.119Z,35.20
2019-01-26T15:18:09.750Z,38.93
2019-01-26T15:20:40.640Z,35.23
2019-01-26T15:23:10.518Z,38.23
2019-01-26T15:25:40.185Z,30.67
2019-01-26T15:28:09.970Z,38.23
2019-01-26T15:30:41.680Z,36.10
2019-01-26T15:33:11.313Z,30.43
2019-01-26T15:35:40.720Z,34.83
2019-01-26T15:38:11.673Z,36.97
2019-01-26T15:40:41.370Z,34.73
2019-01-26T15:43:10.837Z,32.03
2019-01-26T15:45:43.011Z,36.30
2019-01-26T15:48:12.437Z,36.83
2019-01-26T15:50:42.073Z,35.57
2019-01-26T15:53:11.789Z,26.57
2019-01-26T15:55:41.327Z,39.57
2019-01-26T15:58:10.899Z,36.23
2019-01-26T16:00:42.764Z,35.90
2019-01-26T16:03:12.542Z,33.13
2019-01-26T16:05:42.178Z,37.17
2019-01-26T16:08:11.680Z,30.30
2019-01-26T16:10:41.103Z,34.10
2019-01-26T16:13:10.863Z,34.43
2019-01-26T16:15:40.732Z,31.93
2019-01-26T16:18:13.160Z,32.93
2019-01-26T16:20:42.660Z,32.00
2019-01-26T16:23:12.327Z,36.03
2019-01-26T16:25:42.117Z,28.63
2019-01-26T16:28:11.674Z,26.73
2019-01-26T16:30:41.201Z,31.73
2019-01-26T16:33:10.614Z,32.63
2019-01-26T16:35:40.207Z,29.83
2019-01-26T16:38:09.902Z,28.20
2019-01-26T16:40:39.407Z,29.47
2019-01-26T16:43:09.007Z,32.33
2019-01-26T16:45:41.559Z,31.20
2019-01-26T16:48:13.275Z,30.83
2019-01-26T16:50:42.881Z,33.80
2019-01-26T16:53:12.399Z,28.27
2019-01-26T16:55:41.856Z,33.13
2019-01-26T16:58:11.522Z,28.13
2019-01-26T17:00:48.752Z,24.67
2019-01-26T17:03:18.196Z,33.30
2019-01-26T17:05:47.799Z,34.50
2019-01-26T17:08:17.470Z,34.27
2019-01-26T17:10:47.175Z,28.63
2019-01-26T17:13:16.973Z,38.10
2019-01-26T17:15:46.532Z,27.77
2019-01-26T17:18:16.002Z,23.93
2019-01-26T17:20:45.738Z,29.17
2019-01-26T17:23:15.292Z,33.47
2019-01-26T17:25:44.894Z,36.33
2019-01-26T17:28:14.352Z,32.60
2019-01-26T17:30:44.727Z,32.17
2019-01-26T17:33:14.239Z,31.07
2019-01-26T17:35:43.762Z,29.70
2019-01-26T17:38:13.231Z,29.73
2019-01-26T17:40:42.663Z,28.83
2019-01-26T17:43:12.204Z,36.37
2019-01-26T17:45:41.649Z,31.10
2019-01-26T17:48:11.371Z,29.13
2019-01-26T17:50:42.403Z,26.53
2019-01-26T17:53:13.999Z,30.73
2019-01-26T17:55:43.555Z,28.07
2019-01-26T17:58:13.885Z,31.97
2019-01-26T18:00:57.619Z,32.87
2019-01-26T18:03:27.143Z,27.77
2019-01-26T18:05:56.758Z,28.80
2019-01-26T18:08:26.292Z,30.27
2019-01-26T18:10:55.940Z,27.53
2019-01-26T18:13:25.372Z,26.43
2019-01-26T18:15:54.975Z,30.03
2019-01-26T18:18:24.511Z,28.60
2019-01-26T18:20:54.029Z,30.47
2019-01-26T18:23:31.311Z,23.93
2019-01-26T18:26:01.150Z,28.63
2019-01-26T18:28:30.514Z,27.80
2019-01-26T18:30:59.979Z,28.27
2019-01-26T18:33:29.489Z,32.90
2019-01-26T18:35:59.020Z,31.97
2019-01-26T18:38:28.522Z,27.50
2019-01-26T18:40:58.046Z,29.23
2019-01-26T18:43:28.558Z,30.97
2019-01-26T18:45:58.108Z,29.30
2019-01-26T18:48:27.519Z,25.47
2019-01-26T18:50:57.120Z,28.30
2019-01-26T18:53:26.820Z,30.93
2019-01-26T18:55:56.329Z,27.20
2019-01-26T18:58:25.764Z,30.73
2019-01-26T19:00:55.215Z,28.60
2019-01-26T19:03:54.658Z,25.53
2019-01-26T19:06:24.266Z,26.93
2019-01-26T19:08:53.744Z,29.13
2019-01-26T19:11:23.252Z,26.53
2019-01-26T19:13:52.679Z,34.20
2019-01-26T19:16:22.112Z,23.57
2019-01-26T19:18:51.623Z,27.60
2019-01-26T19:21:21.163Z,27.47
2019-01-26T19:23:50.685Z,32.37
2019-01-26T19:26:20.123Z,30.30
2019-01-26T19:28:50.000Z,28.40
2019-01-26T19:31:19.495Z,28.93
2019-01-26T19:33:48.963Z,28.80
2019-01-26T19:36:18.415Z,28.27
2019-01-26T19:38:48.093Z,25.43
2019-01-26T19:41:17.603Z,28.33
2019-01-26T19:43:47.043Z,25.73
2019-01-26T19:46:16.574Z,26.60
2019-01-26T19:48:45.967Z,22.20
2019-01-26T19:51:15.409Z,25.50
2019-01-26T19:53:44.913Z,20.53
2019-01-26T19:56:14.400Z,25.77
2019-01-26T19:58:43.935Z,31.67
2019-01-26T20:01:13.344Z,29.60
2019-01-26T20:03:42.875Z,30.80
2019-01-26T20:06:12.518Z,25.23
2019-01-26T20:08:42.251Z,29.17
2019-01-26T20:11:13.381Z,24.03
2019-01-26T20:13:42.913Z,25.03
2019-01-26T20:16:12.391Z,22.60
2019-01-26T20:18:41.784Z,27.50
2019-01-26T20:21:17.512Z,26.27
2019-01-26T20:23:42.707Z,26.30
2019-01-26T20:26:12.257Z,24.73
2019-01-26T20:28:42.877Z,25.63
2019-01-26T20:31:12.383Z,24.13
2019-01-26T20:33:42.304Z,26.77
2019-01-26T20:36:11.957Z,26.17
2019-01-26T20:38:41.376Z,26.30
2019-01-26T20:41:10.813Z,26.27
2019-01-26T20:43:40.373Z,27.37
2019-01-26T20:46:10.065Z,28.40
2019-01-26T20:48:39.451Z,26.40
2019-01-26T20:51:08.913Z,27.07
2019-01-26T20:53:38.430Z,25.80
2019-01-26T20:56:07.925Z,26.10
2019-01-26T20:58:37.510Z,28.17
2019-01-26T21:01:06.914Z,27.17
2019-01-26T21:03:36.628Z,31.33
2019-01-26T21:06:06.311Z,25.73
2019-01-26T21:08:35.822Z,26.33
2019-01-26T21:11:05.708Z,23.33
2019-01-26T21:13:35.166Z,23.13
2019-01-26T21:16:04.774Z,29.07
2019-01-26T21:18:34.271Z,29.00
2019-01-26T21:21:03.829Z,28.00
2019-01-26T21:23:33.219Z,26.30
2019-01-26T21:26:02.614Z,23.23
2019-01-26T21:28:32.133Z,28.20
2019-01-26T21:31:01.629Z,23.73
2019-01-26T21:33:31.037Z,31.10
2019-01-26T21:36:00.467Z,30.37
2019-01-26T21:38:29.956Z,28.00
2019-01-26T21:40:59.447Z,29.67
2019-01-26T21:43:29.037Z,23.47
2019-01-26T21:45:58.523Z,29.77
2019-01-26T21:48:27.910Z,33.97
2019-01-26T21:50:57.360Z,26.60
2019-01-26T21:53:26.962Z,26.90
2019-01-26T21:55:56.439Z,34.30
2019-01-26T21:58:25.894Z,32.43
2019-01-26T22:00:55.573Z,29.40
2019-01-26T22:03:26.549Z,32.67
2019-01-26T22:05:56.086Z,33.10
2019-01-26T22:08:25.521Z,33.93
2019-01-26T22:10:54.969Z,34.50
2019-01-26T22:13:24.657Z,36.97
2019-01-26T22:15:54.166Z,37.93
2019-01-26T22:18:23.568Z,33.67
2019-01-26T22:20:53.019Z,37.13
2019-01-26T22:23:22.523Z,38.57
2019-01-26T22:25:51.915Z,35.43
2019-01-26T22:28:21.468Z,38.60
2019-01-26T22:30:50.960Z,31.83
2019-01-26T22:33:20.359Z,30.40
2019-01-26T22:35:49.785Z,34.30
2019-01-26T22:38:19.358Z,36.00
2019-01-26T22:40:48.838Z,31.27
2019-01-26T22:43:18.409Z,29.87
2019-01-26T22:45:47.826Z,36.40
2019-01-26T22:48:17.428Z,31.30
2019-01-26T22:50:46.975Z,29.23
2019-01-26T22:53:16.474Z,33.77
2019-01-26T22:55:45.864Z,37.10
2019-01-26T22:58:15.551Z,33.47
2019-01-26T23:01:03.304Z,34.83
2019-01-26T23:03:50.233Z,35.57
2019-01-26T23:06:38.375Z,39.23
2019-01-26T23:09:26.748Z,33.30
2019-01-26T23:12:21.464Z,33.57
2019-01-26T23:15:18.236Z,32.77
2019-01-26T23:18:32.314Z,37.40
2019-01-26T23:21:35.121Z,38.17
2019-01-26T23:24:22.699Z,35.43
2019-01-26T23:27:34.706Z,35.47
2019-01-26T23:31:01.060Z,31.30
2019-01-26T23:33:30.515Z,34.80
2019-01-26T23:35:59.904Z,34.50
2019-01-26T23:38:29.409Z,35.13
2019-01-26T23:40:59.062Z,32.07
2019-01-26T23:43:28.464Z,36.87
2019-01-26T23:45:57.870Z,26.90
2019-01-26T23:48:27.405Z,30.30
2019-01-26T23:50:56.839Z,32.03
2019-01-26T23:53:26.350Z,28.80
2019-01-26T23:55:55.900Z,28.87
2019-01-26T23:58:25.308Z,29.20
